Time;durP1;ratioP1;P1;durP2;ratioP2;P2;SDS_P1;SDS_P2;PMS_P1;PMS_P2;Temp;Humidity;BMP_temperature;BMP_pressure;BME280_temperature;BME280_humidity;BME280_pressure;Samples;Min_cycle;Max_cycle;Signal;HPM_P1;HPM_P2
2022/03/08 00:02:16;;;;;;;;;35.75;31.25;;;;;6.39;37.88;101311.03;5046795;28;45390;-69
2022/03/08 00:04:41;;;;;;;;;38.75;25.75;;;;;6.34;37.87;101305.50;5047030;28;45416;-70
2022/03/08 00:07:07;;;;;;;;;39.75;31.00;;;;;6.30;38.03;101287.56;5049982;28;45577;-69
2022/03/08 00:09:32;;;;;;;;;39.25;32.50;;;;;6.38;38.01;101304.81;5049915;28;45363;-69
2022/03/08 00:11:58;;;;;;;;;32.50;28.50;;;;;6.38;37.91;101307.44;5062963;28;46730;-69
2022/03/08 00:14:23;;;;;;;;;34.50;29.50;;;;;6.18;37.81;101274.56;5056196;28;44934;-69
2022/03/08 00:16:49;;;;;;;;;31.75;23.00;;;;;6.32;37.71;101296.53;5048471;28;45358;-69
2022/03/08 00:19:14;;;;;;;;;38.50;30.00;;;;;6.26;37.99;101275.88;5051555;28;45071;-68
2022/03/08 00:21:40;;;;;;;;;46.00;35.25;;;;;6.21;38.01;101266.78;5049733;28;45432;-68
2022/03/08 00:24:07;;;;;;;;;37.75;30.00;;;;;6.40;37.83;101296.91;5053454;28;45210;-70
2022/03/08 00:26:33;;;;;;;;;29.00;28.50;;;;;6.13;38.14;101243.34;5048997;28;45482;-69
2022/03/08 00:28:58;;;;;;;;;32.25;27.75;;;;;6.42;37.84;101301.50;5049689;28;45359;-70
2022/03/08 00:31:24;;;;;;;;;31.75;28.50;;;;;6.41;37.88;101309.38;5063120;28;46212;-69
2022/03/08 00:33:49;;;;;;;;;36.00;31.75;;;;;6.09;37.91;101272.34;5049553;28;45228;-69
2022/03/08 00:36:14;;;;;;;;;45.50;36.25;;;;;6.20;38.51;101299.47;5054821;28;45527;-69
2022/03/08 00:38:40;;;;;;;;;31.00;30.25;;;;;5.97;38.19;101244.28;5049416;28;45415;-69
2022/03/08 00:41:05;;;;;;;;;39.50;33.25;;;;;6.22;38.65;101303.09;5049807;28;44985;-69
2022/03/08 00:43:31;;;;;;;;;34.50;28.75;;;;;6.17;37.98;101294.00;5051696;28;44899;-69
2022/03/08 00:45:56;;;;;;;;;38.25;32.50;;;;;6.12;38.79;101306.09;5049322;28;45022;-68
2022/03/08 00:48:21;;;;;;;;;47.75;32.50;;;;;6.12;38.84;101303.47;5052720;28;45055;-69
2022/03/08 00:50:47;;;;;;;;;39.50;32.75;;;;;6.07;38.47;101305.84;5052060;28;45315;-68
2022/03/08 00:53:12;;;;;;;;;33.25;30.00;;;;;5.90;38.48;101281.03;5065317;28;45064;-69
2022/03/08 00:55:38;;;;;;;;;39.00;30.75;;;;;6.05;38.79;101302.19;5062957;28;45075;-70
2022/03/08 00:58:05;;;;;;;;;39.00;34.50;;;;;6.07;38.75;101299.63;5061248;28;45021;-69
2022/03/08 01:00:33;;;;;;;;;31.50;27.75;;;;;5.82;39.20;101249.63;5053752;28;45866;-67
2022/03/08 01:02:58;;;;;;;;;28.75;24.50;;;;;6.07;39.13;101302.28;5055515;28;45276;-69
2022/03/08 01:05:24;;;;;;;;;40.00;31.75;;;;;5.88;38.81;101249.97;5070108;28;45095;-69
2022/03/08 01:07:49;;;;;;;;;40.75;33.50;;;;;6.07;39.08;101284.63;5066719;28;45056;-69
2022/03/08 01:10:19;;;;;;;;;34.50;31.50;;;;;6.12;38.76;101290.19;5067948;28;45547;-69
2022/03/08 01:12:46;;;;;;;;;39.50;32.25;;;;;6.14;39.05;101285.88;5061678;28;45098;-69
2022/03/08 01:15:12;;;;;;;;;36.75;32.50;;;;;5.99;38.60;101248.84;5055644;28;45350;-70
2022/03/08 01:17:38;;;;;;;;;41.75;35.25;;;;;6.17;38.44;101286.03;5055371;28;45091;-68
2022/03/08 01:20:08;;;;;;;;;36.00;30.75;;;;;5.89;38.63;101254.47;5054713;28;45124;-68
2022/03/08 01:22:34;;;;;;;;;44.75;35.75;;;;;5.97;39.24;101276.09;5052736;28;45516;-69
2022/03/08 01:24:59;;;;;;;;;41.75;30.50;;;;;5.77;39.39;101259.09;5051861;28;45242;-69
2022/03/08 01:27:26;;;;;;;;;42.00;32.50;;;;;5.59;39.47;101227.19;5053168;28;45110;-68
2022/03/08 01:29:52;;;;;;;;;40.00;30.50;;;;;5.90;38.89;101282.78;5053675;28;45630;-70
2022/03/08 01:32:17;;;;;;;;;42.25;31.75;;;;;5.90;39.09;101280.13;5066523;28;45326;-69
2022/03/08 01:34:43;;;;;;;;;45.50;31.75;;;;;5.86;39.25;101259.59;5053828;28;45044;-68
2022/03/08 01:37:10;;;;;;;;;29.25;22.00;;;;;5.94;39.42;101275.88;5060600;28;45014;-68
2022/03/08 01:39:35;;;;;;;;;27.75;27.75;;;;;5.97;39.02;101281.41;5053452;28;45704;-69
2022/03/08 01:42:11;;;;;;;;;41.25;35.25;;;;;5.94;39.42;101276.81;5053125;28;45025;-67
2022/03/08 01:44:39;;;;;;;;;43.00;36.25;;;;;5.83;38.95;101276.22;5063552;28;45186;-69
2022/03/08 01:47:05;;;;;;;;;49.50;34.50;;;;;5.54;39.89;101250.78;5075100;28;45232;-68
2022/03/08 01:49:30;;;;;;;;;36.50;31.75;;;;;5.60;39.57;101274.09;5063468;27;45526;-69
2022/03/08 01:51:56;;;;;;;;;43.25;34.50;;;;;5.68;39.54;101270.09;5057528;27;45436;-69
2022/03/08 01:54:22;;;;;;;;;35.50;32.75;;;;;5.57;39.60;101250.06;5067557;28;45105;-69
2022/03/08 01:56:47;;;;;;;;;36.25;31.50;;;;;5.30;39.69;101231.81;5056450;28;45114;-69
2022/03/08 01:59:12;;;;;;;;;35.50;32.00;;;;;5.31;39.97;101236.28;5067197;28;45498;-68
2022/03/08 02:01:38;;;;;;;;;42.25;32.25;;;;;5.49;39.58;101263.81;5057356;28;44697;-69
2022/03/08 02:04:03;;;;;;;;;29.00;26.50;;;;;5.48;40.25;101267.28;5058858;28;45243;-69
2022/03/08 02:06:28;;;;;;;;;36.50;31.25;;;;;5.51;40.33;101263.84;5062794;28;45712;-69
2022/03/08 02:08:54;;;;;;;;;47.50;33.25;;;;;5.15;40.10;101201.00;5067318;28;45849;-69
2022/03/08 02:11:22;;;;;;;;;45.25;33.75;;;;;5.54;40.12;101262.31;5053725;28;45135;-69
2022/03/08 02:13:47;;;;;;;;;42.50;33.50;;;;;5.24;40.01;101191.72;5058656;28;45685;-68
2022/03/08 02:16:14;;;;;;;;;35.75;29.00;;;;;5.03;40.03;101160.56;5053706;28;45151;-69
2022/03/08 02:18:39;;;;;;;;;33.00;25.50;;;;;5.61;39.81;101255.63;5054000;28;45294;-68
2022/03/08 02:21:06;;;;;;;;;40.25;35.50;;;;;5.63;39.83;101248.66;5058103;28;45197;-68
2022/03/08 02:23:31;;;;;;;;;29.50;22.00;;;;;5.61;39.49;101233.47;5054564;28;44926;-68
2022/03/08 02:25:57;;;;;;;;;34.25;27.75;;;;;5.67;39.51;101245.31;5060174;28;45111;-68
2022/03/08 02:28:23;;;;;;;;;42.75;34.50;;;;;5.69;39.48;101242.75;5068189;28;45728;-68
2022/03/08 02:30:48;;;;;;;;;36.25;33.25;;;;;5.66;39.44;101235.56;5062530;28;45279;-69
2022/03/08 02:33:13;;;;;;;;;41.50;29.75;;;;;5.55;39.61;101220.81;5054621;28;45181;-68
2022/03/08 02:35:39;;;;;;;;;34.00;29.75;;;;;5.63;40.04;101232.75;5055316;28;45047;-67
2022/03/08 02:38:06;;;;;;;;;38.50;31.00;;;;;5.51;40.18;101211.78;5053180;28;45121;-68
2022/03/08 02:40:38;;;;;;;;;45.50;35.75;;;;;5.63;40.09;101235.41;5053951;28;45238;-68
2022/03/08 02:43:06;;;;;;;;;44.75;34.50;;;;;5.65;39.85;101233.72;5064176;28;45120;-68
2022/03/08 02:45:32;;;;;;;;;33.75;29.50;;;;;5.66;40.42;101229.31;5060273;28;45079;-69
2022/03/08 02:47:58;;;;;;;;;39.50;34.25;;;;;5.67;40.29;101228.50;5059232;28;45610;-68
2022/03/08 02:50:24;;;;;;;;;41.25;34.00;;;;;5.57;39.64;101210.28;5054426;28;45121;-68
2022/03/08 02:52:52;;;;;;;;;32.25;24.75;;;;;5.65;39.48;101212.53;5068881;28;45684;-68
2022/03/08 02:55:22;;;;;;;;;33.75;32.25;;;;;5.47;39.51;101185.03;5071441;28;45126;-69
2022/03/08 02:57:48;;;;;;;;;34.50;32.50;;;;;5.69;39.67;101219.81;5068835;28;46576;-69
2022/03/08 03:00:16;;;;;;;;;34.25;28.75;;;;;5.66;39.65;101213.41;5066310;28;45171;-69
2022/03/08 03:02:41;;;;;;;;;22.50;22.50;;;;;5.44;39.83;101156.63;5049033;28;45557;-69
2022/03/08 03:05:08;;;;;;;;;37.00;33.00;;;;;5.71;39.54;101212.84;5052574;28;45164;-68
2022/03/08 03:07:34;;;;;;;;;38.75;35.75;;;;;5.70;40.39;101205.72;5050756;28;45145;-68
2022/03/08 03:09:59;;;;;;;;;32.75;28.00;;;;;5.72;39.60;101212.03;5052451;28;45153;-69
2022/03/08 03:12:25;;;;;;;;;32.00;28.50;;;;;5.58;39.75;101183.88;5050692;28;45329;-69
2022/03/08 03:14:50;;;;;;;;;38.50;31.50;;;;;5.71;40.05;101209.31;5051823;28;44999;-68
2022/03/08 03:17:17;;;;;;;;;33.00;27.00;;;;;5.71;39.63;101204.00;5049846;28;45101;-69
2022/03/08 03:19:42;;;;;;;;;33.50;28.75;;;;;5.75;39.57;101203.31;5047399;28;45025;-69
2022/03/08 03:22:08;;;;;;;;;32.75;28.75;;;;;5.46;40.12;101154.97;5053409;28;45289;-68
2022/03/08 03:24:33;;;;;;;;;35.50;30.00;;;;;5.72;39.74;101198.78;5051503;28;45420;-69
2022/03/08 03:26:58;;;;;;;;;34.75;29.50;;;;;5.63;39.91;101187.69;5051168;28;45461;-69
2022/03/08 03:29:24;;;;;;;;;40.50;34.75;;;;;5.68;39.64;101195.88;5066262;28;45511;-68
2022/03/08 03:31:49;;;;;;;;;37.75;28.75;;;;;5.68;39.46;101203.84;5069793;28;45608;-68
2022/03/08 03:34:14;;;;;;;;;37.25;31.50;;;;;5.60;40.16;101187.50;5066221;28;45257;-69
2022/03/08 03:36:40;;;;;;;;;38.25;34.25;;;;;5.47;40.26;101155.88;5068996;28;46310;-69
2022/03/08 03:39:06;;;;;;;;;43.25;29.75;;;;;5.70;39.86;101187.16;5050484;28;45012;-69
2022/03/08 03:41:31;;;;;;;;;41.00;33.00;;;;;5.69;39.73;101185.38;5046897;28;45432;-69
2022/03/08 03:43:57;;;;;;;;;33.75;31.00;;;;;5.61;39.75;101185.75;5052920;28;45447;-68
2022/03/08 03:46:22;;;;;;;;;34.25;27.50;;;;;5.66;39.83;101182.53;5066166;28;45310;-68
2022/03/08 03:48:48;;;;;;;;;47.50;32.75;;;;;5.62;40.57;101163.75;5055420;28;45189;-69
2022/03/08 03:51:14;;;;;;;;;35.00;31.00;;;;;5.67;40.41;101176.41;5062169;28;45351;-68
2022/03/08 03:53:40;;;;;;;;;32.75;27.75;;;;;5.71;40.17;101196.06;5062844;28;46169;-69
2022/03/08 03:56:05;;;;;;;;;32.75;30.75;;;;;5.73;39.86;101197.94;5064639;28;45708;-70
2022/03/08 03:58:31;;;;;;;;;36.75;28.75;;;;;5.71;40.26;101172.19;5060617;28;45275;-69
2022/03/08 04:00:56;;;;;;;;;36.75;29.00;;;;;5.75;40.48;101179.47;5057348;28;44989;-68
2022/03/08 04:03:23;;;;;;;;;42.25;27.75;;;;;5.65;40.33;101178.06;5063121;27;44993;-68
2022/03/08 04:05:48;;;;;;;;;36.75;32.75;;;;;5.67;40.08;101189.66;5052262;28;45105;-69
2022/03/08 04:08:13;;;;;;;;;36.25;30.75;;;;;5.46;40.25;101159.34;5058237;28;44985;-68
2022/03/08 04:10:39;;;;;;;;;45.00;36.25;;;;;5.59;40.37;101177.72;5052519;28;45097;-69
2022/03/08 04:13:04;;;;;;;;;38.50;29.25;;;;;5.57;40.22;101190.00;5052718;28;45130;-69
2022/03/08 04:15:30;;;;;;;;;40.50;28.75;;;;;5.57;40.08;101187.34;5051610;28;45345;-69
2022/03/08 04:17:55;;;;;;;;;44.50;33.50;;;;;5.47;40.03;101177.97;5048780;28;45465;-69
2022/03/08 04:20:20;;;;;;;;;37.25;29.75;;;;;5.02;40.29;101102.25;5060942;28;45544;-69
2022/03/08 04:22:46;;;;;;;;;26.25;22.75;;;;;5.53;39.91;101183.63;5066124;28;45068;-69
2022/03/08 04:25:11;;;;;;;;;42.00;27.50;;;;;5.55;40.67;101183.72;5069588;28;45105;-67
2022/03/08 04:27:37;;;;;;;;;40.75;33.00;;;;;5.55;40.20;101186.34;5057037;28;45561;-68
2022/03/08 04:30:05;;;;;;;;;41.25;33.75;;;;;5.51;40.23;101180.00;5048064;28;45409;-69
2022/03/08 04:32:30;;;;;;;;;41.25;32.25;;;;;5.46;40.25;101181.47;5048820;28;45243;-68
2022/03/08 04:34:55;;;;;;;;;36.25;30.25;;;;;5.36;40.50;101163.25;5060393;28;46873;-68
2022/03/08 04:37:22;;;;;;;;;41.00;34.00;;;;;5.42;40.60;101179.47;5071865;28;45235;-68
2022/03/08 04:39:47;;;;;;;;;45.50;35.75;;;;;5.44;40.58;101172.53;5057030;28;45227;-69
2022/03/08 04:42:12;;;;;;;;;38.75;32.50;;;;;5.46;40.84;101167.31;5051239;28;45083;-69
2022/03/08 04:44:38;;;;;;;;;31.75;29.00;;;;;5.32;40.14;101150.69;5052783;28;45673;-69
2022/03/08 04:47:03;;;;;;;;;39.25;29.00;;;;;5.41;40.42;101172.38;5054046;28;45318;-69
2022/03/08 04:49:29;;;;;;;;;26.25;17.75;;;;;5.32;40.58;101161.28;5051194;28;45388;-68
2022/03/08 04:51:54;;;;;;;;;40.25;36.25;;;;;5.40;40.75;101180.25;5052207;28;44941;-68
2022/03/08 04:54:19;;;;;;;;;28.50;23.00;;;;;5.29;41.11;101159.34;5048974;28;45349;-69
2022/03/08 04:56:45;;;;;;;;;41.75;33.25;;;;;5.23;40.47;101169.63;5052197;28;45147;-68
2022/03/08 04:59:10;;;;;;;;;30.25;27.25;;;;;5.23;41.28;101166.06;5064655;28;45095;-68
2022/03/08 05:01:35;;;;;;;;;31.00;27.50;;;;;5.23;41.25;101172.28;5061311;28;45438;-70
2022/03/08 05:04:01;;;;;;;;;36.50;29.25;;;;;5.21;40.88;101168.63;5053468;28;45678;-68
2022/03/08 05:06:29;;;;;;;;;35.25;27.75;;;;;5.14;41.31;101150.59;5054278;28;45028;-69
2022/03/08 05:08:55;;;;;;;;;36.50;26.00;;;;;5.12;40.66;101145.19;5073422;28;45033;-69
2022/03/08 05:11:20;;;;;;;;;50.75;37.00;;;;;4.97;41.21;101113.50;5074108;28;45035;-69
2022/03/08 05:13:46;;;;;;;;;37.75;30.75;;;;;5.24;41.07;101162.59;5069339;28;45519;-68
2022/03/08 05:16:11;;;;;;;;;34.75;32.00;;;;;5.14;41.21;101142.63;5058922;28;44982;-70
2022/03/08 05:18:36;;;;;;;;;37.75;30.50;;;;;5.25;41.20;101167.09;5052380;28;45040;-69
2022/03/08 05:21:02;;;;;;;;;40.50;32.50;;;;;5.26;40.96;101164.50;5052725;28;44878;-69
2022/03/08 05:23:27;;;;;;;;;41.75;32.25;;;;;5.00;41.57;101131.31;5069468;28;46038;-68
2022/03/08 05:25:52;;;;;;;;;39.00;33.00;;;;;5.26;40.79;101167.16;5063108;28;45249;-69
2022/03/08 05:28:18;;;;;;;;;42.75;31.25;;;;;5.28;41.21;101167.22;5055185;28;45545;-69
2022/03/08 05:30:44;;;;;;;;;52.50;34.75;;;;;5.20;41.55;101150.94;5057910;28;45264;-68
2022/03/08 05:33:10;;;;;;;;;40.00;35.00;;;;;5.27;41.50;101166.31;5055645;28;45502;-68
2022/03/08 05:35:35;;;;;;;;;43.75;31.00;;;;;5.27;41.77;101160.13;5052036;28;45445;-68
2022/03/08 05:38:01;;;;;;;;;33.00;30.25;;;;;5.23;41.13;101155.47;5053502;28;45072;-69
2022/03/08 05:40:26;;;;;;;;;42.00;35.00;;;;;5.24;41.75;101162.59;5061651;28;45168;-67
2022/03/08 05:42:52;;;;;;;;;45.25;36.50;;;;;5.23;41.44;101155.47;5073292;28;45164;-68
2022/03/08 05:45:17;;;;;;;;;37.50;30.00;;;;;4.99;41.39;101116.22;5070781;28;45139;-68
2022/03/08 05:47:43;;;;;;;;;36.25;28.50;;;;;5.06;41.57;101125.41;5061102;28;45117;-69
2022/03/08 05:50:10;;;;;;;;;41.50;34.50;;;;;4.76;41.40;101078.81;5057789;28;45039;-68
2022/03/08 05:52:36;;;;;;;;;43.25;27.75;;;;;5.03;41.12;101133.19;5067360;27;45210;-70
2022/03/08 05:55:02;;;;;;;;;43.75;32.00;;;;;4.99;41.77;101124.19;5054950;28;45336;-69
2022/03/08 05:57:28;;;;;;;;;41.50;34.00;;;;;5.17;41.60;101156.06;5053716;28;45020;-69
2022/03/08 05:59:53;;;;;;;;;48.25;36.75;;;;;4.82;41.68;101098.50;5051355;28;45598;-69
2022/03/08 06:02:21;;;;;;;;;42.50;34.00;;;;;5.04;41.47;101137.69;5054048;28;45211;-68
2022/03/08 06:04:46;;;;;;;;;44.75;33.25;;;;;5.08;42.04;101152.88;5050278;28;45367;-68
2022/03/08 06:07:11;;;;;;;;;38.25;32.25;;;;;5.08;41.54;101155.53;5061493;28;44977;-68
2022/03/08 06:09:37;;;;;;;;;45.75;34.25;;;;;5.19;41.91;101165.00;5052137;28;45387;-69
2022/03/08 06:12:03;;;;;;;;;48.00;32.75;;;;;5.01;41.33;101121.63;5051126;28;45734;-68
2022/03/08 06:14:29;;;;;;;;;36.75;32.75;;;;;5.16;41.57;101151.56;5067121;28;45499;-69
2022/03/08 06:16:54;;;;;;;;;40.25;30.25;;;;;5.25;41.30;101159.13;5070615;28;45201;-69
2022/03/08 06:19:19;;;;;;;;;34.75;28.50;;;;;5.36;41.47;101171.19;5062204;28;45431;-69
2022/03/08 06:21:45;;;;;;;;;45.50;31.75;;;;;5.30;41.66;101168.25;5051005;28;46454;-69
2022/03/08 06:24:13;;;;;;;;;44.00;37.50;;;;;5.34;41.80;101168.47;5053261;28;45122;-69
2022/03/08 06:26:39;;;;;;;;;38.75;33.75;;;;;5.40;41.77;101172.28;5066499;28;45381;-68
2022/03/08 06:29:05;;;;;;;;;42.50;38.25;;;;;5.28;42.17;101160.19;5068037;28;45212;-67
2022/03/08 06:31:30;;;;;;;;;52.75;39.50;;;;;5.31;41.84;101172.69;5061111;28;45876;-68
2022/03/08 06:33:55;;;;;;;;;53.75;39.50;;;;;5.17;41.99;101179.88;5056260;28;45271;-69
2022/03/08 06:36:21;;;;;;;;;39.75;35.50;;;;;4.93;43.27;101164.47;5060937;28;45044;-69
2022/03/08 06:38:46;;;;;;;;;46.00;39.25;;;;;4.95;42.75;101170.75;5066638;27;45143;-69
2022/03/08 06:41:11;;;;;;;;;44.50;34.25;;;;;5.14;42.76;101179.72;5051569;28;45091;-68
2022/03/08 06:43:39;;;;;;;;;54.00;38.25;;;;;5.14;42.80;101171.78;5050561;28;45138;-68
2022/03/08 06:46:04;;;;;;;;;36.50;35.50;;;;;5.17;42.89;101180.78;5054554;28;45045;-69
2022/03/08 06:48:30;;;;;;;;;52.75;37.50;;;;;4.66;43.39;101080.88;5050944;28;45431;-69
2022/03/08 06:50:55;;;;;;;;;49.25;37.00;;;;;5.04;42.55;101148.25;5054741;28;46101;-70
2022/03/08 06:53:20;;;;;;;;;44.75;33.25;;;;;4.93;43.70;101139.72;5055539;27;45326;-70
2022/03/08 06:55:45;;;;;;;;;44.50;35.50;;;;;5.24;42.14;101160.84;5052493;28;45519;-70
2022/03/08 06:58:11;;;;;;;;;47.00;38.00;;;;;5.13;42.10;101146.09;5051611;28;45025;-70
2022/03/08 07:00:36;;;;;;;;;46.00;36.25;;;;;5.26;42.34;101159.22;5050431;28;45465;-70
2022/03/08 07:03:01;;;;;;;;;55.00;41.00;;;;;5.33;42.27;101181.66;5060805;28;45130;-70
2022/03/08 07:05:27;;;;;;;;;35.25;31.50;;;;;5.19;42.44;101183.53;5049663;28;45298;-71
2022/03/08 07:07:52;;;;;;;;;46.25;40.75;;;;;5.15;42.46;101179.81;5053036;28;44915;-70
2022/03/08 07:10:18;;;;;;;;;44.25;36.75;;;;;5.15;42.57;101176.25;5050395;28;45411;-70
2022/03/08 07:12:43;;;;;;;;;48.50;36.25;;;;;5.14;43.40;101177.06;5050288;28;45001;-71
2022/03/08 07:15:09;;;;;;;;;55.75;40.50;;;;;5.11;42.68;101153.06;5053096;28;45151;-71
2022/03/08 07:17:34;;;;;;;;;38.00;35.00;;;;;5.35;42.17;101183.53;5067352;28;45194;-71
2022/03/08 07:19:59;;;;;;;;;41.50;33.75;;;;;5.41;42.47;101177.69;5050575;28;45312;-70
2022/03/08 07:22:25;;;;;;;;;48.25;38.25;;;;;5.44;41.77;101179.56;5056439;28;51917;-70
2022/03/08 07:24:50;;;;;;;;;55.50;39.25;;;;;5.49;42.22;101188.66;5035435;28;45380;-72
2022/03/08 07:27:16;;;;;;;;;46.25;39.50;;;;;5.36;42.11;101157.94;5050331;28;45689;-69
2022/03/08 07:29:43;;;;;;;;;42.50;36.50;;;;;5.59;41.96;101184.78;5046245;27;45408;-70
2022/03/08 07:32:09;;;;;;;;;51.00;37.75;;;;;5.56;42.30;101188.19;5032694;28;45471;-70
2022/03/08 07:34:35;;;;;;;;;55.25;40.00;;;;;5.54;41.69;101195.13;5033878;28;45342;-69
2022/03/08 07:37:00;;;;;;;;;55.25;40.50;;;;;5.45;42.28;101184.06;5034397;28;45288;-69
2022/03/08 07:39:25;;;;;;;;;56.75;40.00;;;;;5.52;42.09;101180.88;5047462;28;45427;-71
2022/03/08 07:41:51;;;;;;;;;47.75;34.75;;;;;5.49;42.08;101180.72;5051054;28;45444;-70
2022/03/08 07:44:16;;;;;;;;;57.25;40.25;;;;;5.71;42.17;101204.91;5048622;28;45326;-69
2022/03/08 07:46:41;;;;;;;;;47.50;36.75;;;;;5.76;41.45;101206.88;5033546;28;45322;-70
2022/03/08 07:49:06;;;;;;;;;51.50;38.75;;;;;5.56;41.17;101180.25;5033062;28;45798;-70
2022/03/08 07:51:32;;;;;;;;;54.25;40.00;;;;;5.15;41.39;101125.94;5033514;28;45308;-69
2022/03/08 07:53:59;;;;;;;;;55.25;37.75;;;;;4.93;41.22;101107.94;5033341;28;45366;-70
2022/03/08 07:56:24;;;;;;;;;45.25;36.75;;;;;5.45;41.65;101211.44;5034424;28;45447;-70
2022/03/08 07:58:50;;;;;;;;;50.50;39.00;;;;;5.22;41.56;101173.09;5034265;28;46072;-70
2022/03/08 08:01:15;;;;;;;;;51.75;39.50;;;;;5.44;41.43;101214.91;5034220;28;45536;-71
2022/03/08 08:03:41;;;;;;;;;49.75;38.75;;;;;5.29;41.51;101196.44;5034324;28;45510;-69
2022/03/08 08:06:06;;;;;;;;;47.00;37.75;;;;;5.34;41.55;101212.59;5035227;28;45381;-69
2022/03/08 08:08:31;;;;;;;;;44.00;36.75;;;;;5.34;42.14;101199.34;5033743;28;46254;-69
2022/03/08 08:10:57;;;;;;;;;56.25;42.00;;;;;5.53;42.55;101209.22;5053368;28;45441;-70
2022/03/08 08:13:22;;;;;;;;;46.00;38.50;;;;;5.28;41.50;101191.06;5052740;28;45472;-70
2022/03/08 08:15:48;;;;;;;;;56.25;40.75;;;;;5.66;41.63;101211.72;5053687;28;45652;-69
2022/03/08 08:18:13;;;;;;;;;56.50;40.00;;;;;5.54;41.25;101208.38;5053141;28;46402;-69
2022/03/08 08:20:39;;;;;;;;;52.75;40.50;;;;;4.97;42.19;101112.59;5053137;28;45320;-70
2022/03/08 08:23:04;;;;;;;;;62.75;42.75;;;;;5.60;42.00;101206.06;5053150;28;45424;-69
2022/03/08 08:25:30;;;;;;;;;57.00;44.50;;;;;5.67;41.19;101192.31;5053532;28;45570;-69
2022/03/08 08:27:55;;;;;;;;;61.25;41.00;;;;;5.73;41.13;101178.47;5052890;28;45414;-70
2022/03/08 08:30:22;;;;;;;;;56.50;37.25;;;;;5.70;41.35;101180.97;5068402;28;45299;-69
2022/03/08 08:32:50;;;;;;;;;52.75;40.00;;;;;5.87;41.73;101197.75;5053168;28;45460;-70
2022/03/08 08:35:16;;;;;;;;;53.00;41.50;;;;;6.04;41.96;101212.84;5069259;28;45577;-71
2022/03/08 08:37:41;;;;;;;;;58.00;40.25;;;;;5.65;41.67;101150.66;5053312;28;45309;-68
2022/03/08 08:40:07;;;;;;;;;53.50;39.25;;;;;6.12;41.21;101213.25;5036891;28;45588;-70
2022/03/08 08:42:33;;;;;;;;;58.75;44.25;;;;;6.09;41.32;101186.56;5034189;28;45578;-68
2022/03/08 08:44:58;;;;;;;;;57.25;43.50;;;;;6.18;40.75;101172.84;5034253;28;45489;-69
2022/03/08 08:47:23;;;;;;;;;49.75;39.25;;;;;6.26;40.96;101179.47;5044343;28;47284;-70
2022/03/08 08:49:49;;;;;;;;;52.00;40.25;;;;;6.57;40.66;101215.53;5033789;28;45454;-68
2022/03/08 08:52:14;;;;;;;;;35.50;22.75;;;;;6.59;40.60;101221.81;5033909;28;45422;-70
2022/03/08 08:54:39;;;;;;;;;47.00;38.00;;;;;6.46;40.65;101184.00;5034166;28;45275;-68
2022/03/08 08:57:05;;;;;;;;;50.25;39.25;;;;;6.69;40.67;101232.03;5034138;28;45563;-69
2022/03/08 08:59:30;;;;;;;;;53.75;40.25;;;;;6.55;40.32;101183.59;5033365;28;45442;-70
2022/03/08 09:01:56;;;;;;;;;52.25;40.00;;;;;6.88;40.14;101212.63;5033658;28;45389;-71
2022/03/08 09:04:21;;;;;;;;;51.50;42.75;;;;;6.87;39.85;101210.78;5033697;28;45495;-70
2022/03/08 09:06:46;;;;;;;;;50.75;40.50;;;;;6.95;39.98;101216.50;5052219;28;45414;-68
2022/03/08 09:09:12;;;;;;;;;54.00;39.00;;;;;6.96;39.63;101194.38;5053021;28;45541;-69
2022/03/08 09:11:38;;;;;;;;;57.25;41.25;;;;;7.07;39.92;101206.44;5053015;28;45432;-68
2022/03/08 09:14:04;;;;;;;;;45.75;37.75;;;;;6.96;39.30;101167.81;5053250;28;45379;-69
2022/03/08 09:16:29;;;;;;;;;49.75;42.00;;;;;7.29;39.17;101207.47;5052668;28;46910;-71
2022/03/08 09:18:55;;;;;;;;;64.25;49.50;;;;;7.14;39.61;101165.13;5052274;28;45430;-70
2022/03/08 09:21:20;;;;;;;;;53.50;39.50;;;;;7.42;39.68;101193.91;5054098;28;45469;-69
2022/03/08 09:23:46;;;;;;;;;58.75;42.50;;;;;6.82;38.73;101080.44;5056269;28;45386;-68
2022/03/08 09:26:11;;;;;;;;;43.75;34.00;;;;;6.86;39.26;101091.22;5055995;28;46195;-69
2022/03/08 09:28:36;;;;;;;;;60.25;46.00;;;;;7.56;39.44;101203.44;5055569;28;45391;-70
2022/03/08 09:31:02;;;;;;;;;56.25;42.25;;;;;7.56;38.44;101184.81;5056139;28;45358;-71
2022/03/08 09:33:28;;;;;;;;;53.50;38.25;;;;;7.55;39.20;101201.59;5056206;28;45365;-70
2022/03/08 09:35:54;;;;;;;;;49.00;39.50;;;;;7.64;39.57;101186.91;5071465;28;47143;-69
2022/03/08 09:38:19;;;;;;;;;52.25;39.00;;;;;7.74;38.94;101175.84;5055431;28;45341;-70
2022/03/08 09:40:47;;;;;;;;;42.25;33.50;;;;;7.88;38.94;101190.66;5055582;28;45465;-67
2022/03/08 09:43:14;;;;;;;;;53.75;44.50;;;;;8.03;38.41;101186.88;5055993;28;45406;-71
2022/03/08 09:45:39;;;;;;;;;55.25;45.25;;;;;8.12;38.81;101176.63;5055344;28;46313;-70
2022/03/08 09:48:04;;;;;;;;;57.75;39.25;;;;;8.25;37.89;101191.34;5055872;28;45390;-69
2022/03/08 09:50:30;;;;;;;;;51.75;41.00;;;;;8.38;37.96;101187.47;5056483;28;45744;-70
2022/03/08 09:52:57;;;;;;;;;55.50;41.00;;;;;8.43;37.34;101183.28;5056406;28;45563;-70
2022/03/08 09:55:25;;;;;;;;;69.25;46.75;;;;;8.58;38.20;101172.34;5056114;28;46199;-69
2022/03/08 09:57:52;;;;;;;;;61.50;46.75;;;;;8.78;37.43;101179.41;5055901;28;45446;-69
2022/03/08 10:00:18;;;;;;;;;56.00;42.00;;;;;8.93;37.66;101181.78;5055595;28;45590;-69
2022/03/08 10:02:46;;;;;;;;;58.00;45.00;;;;;9.07;37.26;101170.75;5049231;28;45358;-71
2022/03/08 10:05:11;;;;;;;;;47.75;35.25;;;;;9.17;36.98;101173.84;5055374;28;47060;-69
2022/03/08 10:07:37;;;;;;;;;59.75;46.50;;;;;9.15;37.51;101161.31;5055272;28;45360;-70
2022/03/08 10:10:02;;;;;;;;;53.00;40.75;;;;;9.16;36.18;101176.47;5055044;28;45325;-70
2022/03/08 10:12:28;;;;;;;;;41.25;37.50;;;;;9.16;36.94;101169.38;5055233;28;45575;-71
2022/03/08 10:14:53;;;;;;;;;59.00;45.50;;;;;9.11;36.51;101168.28;5055358;28;45470;-69
2022/03/08 10:17:37;;;;;;;;;64.75;47.25;;;;;9.15;36.70;101154.19;5055312;28;45426;-70
2022/03/08 10:20:05;;;;;;;;;56.25;42.25;;;;;9.30;37.24;101159.22;5055282;28;45562;-69
2022/03/08 10:22:34;;;;;;;;;60.00;44.75;;;;;9.52;36.33;101152.94;5055510;28;45273;-69
2022/03/08 10:25:19;;;;;;;;;55.25;40.25;;;;;10.15;36.39;101159.63;5055059;28;45431;-68
2022/03/08 10:28:06;;;;;;;;;58.75;44.25;;;;;10.54;35.49;101127.13;5054902;28;45610;-70
2022/03/08 10:30:44;;;;;;;;;54.50;43.00;;;;;10.99;34.18;101142.81;5054672;28;45472;-73
2022/03/08 10:33:11;;;;;;;;;51.50;38.25;;;;;11.12;34.73;101144.09;5048591;28;45391;-70
2022/03/08 10:35:41;;;;;;;;;50.25;38.50;;;;;11.18;34.38;101144.28;5035639;28;46195;-71
2022/03/08 10:38:09;;;;;;;;;58.50;42.75;;;;;11.13;34.08;101140.56;5049299;28;45428;-71
2022/03/08 10:40:35;;;;;;;;;53.00;40.00;;;;;10.90;35.07;101098.84;5055472;28;45440;-72
2022/03/08 10:43:08;;;;;;;;;56.25;44.50;;;;;10.91;34.66;101085.53;5055727;28;45944;-71
2022/03/08 10:45:39;;;;;;;;;58.75;44.50;;;;;11.20;33.84;101145.25;5055151;28;45980;-70
2022/03/08 10:48:06;;;;;;;;;61.75;44.00;;;;;10.95;34.24;101135.53;5054481;28;45566;-71
2022/03/08 10:50:34;;;;;;;;;53.00;38.75;;;;;10.74;34.60;101106.41;5035460;28;45391;-71
2022/03/08 10:53:02;;;;;;;;;56.50;43.50;;;;;10.92;34.21;101146.13;5035118;28;45303;-69
2022/03/08 10:55:30;;;;;;;;;57.75;43.50;;;;;10.86;34.35;101122.81;5034880;28;45472;-72
2022/03/08 10:58:07;;;;;;;;;53.50;42.50;;;;;11.02;34.57;101133.97;5035291;28;45382;-70
2022/03/08 11:00:39;;;;;;;;;60.75;45.75;;;;;11.12;34.86;101133.41;5035120;28;45448;-70
2022/03/08 11:03:08;;;;;;;;;55.75;42.25;;;;;11.16;34.10;101127.28;5035809;28;45764;-70
2022/03/08 11:05:47;;;;;;;;;63.50;43.50;;;;;11.18;34.23;101133.56;5034962;28;45454;-70
2022/03/08 11:08:13;;;;;;;;;55.00;44.75;;;;;11.29;34.54;101125.88;5034778;28;45417;-71
2022/03/08 11:10:40;;;;;;;;;49.50;41.50;;;;;10.99;34.31;101049.25;5034804;28;45426;-69
2022/03/08 11:13:07;;;;;;;;;54.75;42.50;;;;;11.50;34.68;101112.22;5035139;28;45365;-69